Latest Weather Observations for Fitzroy Crossing

IDW60801

Issued at 1:02 pm WST Wednesday 29 July 2015 (issued every 30 minutes, with the page automatically refreshed every 10 minutes)

About weather observations | Map of weather stations | Latest weather observations for WA | Other Formats
Station Details ID: 003093 Name: FITZROY CROSSING AERO Lat: -18.18 Lon: 125.56 Height: 114.5 m
Data from the previous 72 hours. | See also: Recent months at Fitzroy Crossing
Date/Time
WST
Temp
°C
App
Temp
°C
Dew
Point
Rel
Hum
%
Delta-T
°C
Wind Press
QNH
hPa
Press
MSL
hPa
Rain
since 9 am
mm
Dir
 
Spd
km/h
Gust
km/h
Spd
kts
Gust
kts
29/01:00pm 31.5 25.8 0.8 14 15.1 ESE 20 32 11 17 1018.4 1018.0 0.0
29/12:30pm 31.0 25.4 1.4 15 14.6 E 20 30 11 16 1018.9 1018.5 0.0
29/12:00pm 30.1 24.5 1.5 16 14.1 E 20 30 11 16 1019.4 1019.0 0.0
29/11:30am 29.4 23.7 2.6 18 13.4 E 22 33 12 18 1020.1 1019.7 0.0
29/11:00am 29.4 23.9 4.1 20 12.9 E 22 32 12 17 1020.7 1020.3 0.0
29/10:30am 28.4 23.6 4.6 22 12.2 E 19 28 10 15 1021.2 1020.9 0.0
29/10:00am 27.6 22.3 5.2 24 11.5 ENE 22 32 12 17 1021.6 1021.3 0.0
29/09:30am 26.8 20.9 5.7 26 11.0 ENE 26 37 14 20 1021.9 1021.6 0.0
29/09:00am 25.3 20.2 6.0 29 9.9 E 22 35 12 19 1022.1 1021.8 0.0
29/08:30am 23.5 19.0 5.9 32 9.0 ENE 19 35 10 19 1022.2 1021.9 0.0
29/08:00am 22.2 18.8 6.0 35 8.2 ENE 13 19 7 10 1022.1 1021.8 0.0
29/07:30am 20.7 17.6 5.5 37 7.5 ENE 11 15 6 8 1022.0 1021.7 0.0
29/07:00am 19.0 16.1 4.7 39 6.9 ENE 9 11 5 6 1021.7 1021.4 0.0
29/06:30am 16.2 13.3 2.6 40 6.2 ENE 7 9 4 5 1021.5 1021.2 0.0
29/06:00am 16.6 13.4 3.0 40 6.2 NE 9 13 5 7 1021.2 1020.9 0.0
29/05:30am 16.6 15.1 3.0 40 6.2 CALM 0 0 0 0 1020.9 1020.5 0.0
29/05:00am 15.6 13.9 1.7 39 6.1 CALM 0 0 0 0 1020.7 1020.3 0.0
29/04:30am 15.4 13.6 1.2 38 6.2 CALM 0 0 0 0 1020.3 1019.9 0.0
29/04:00am 16.0 13.8 1.3 37 6.5 NNE 2 6 1 3 1020.3 1019.9 0.0
29/03:30am 17.4 14.4 2.2 36 6.9 ENE 7 9 4 5 1020.3 1019.9 0.0
29/03:00am 17.1 14.0 1.5 35 6.9 E 7 11 4 6 1020.3 1019.9 0.0
29/02:30am 17.0 14.0 1.0 34 7.1 NE 6 6 3 3 1020.3 1019.9 0.0
29/02:00am 18.9 15.9 2.3 33 7.6 E 7 11 4 6 1020.3 1019.9 0.0
29/01:30am 19.7 16.5 3.0 33 7.9 ESE 9 13 5 7 1020.2 1019.8 0.0
29/01:00am 20.2 16.3 3.4 33 8.0 ESE 13 19 7 10 1020.4 1020.0 0.0
29/12:30am 20.3 16.4 3.5 33 8.0 ESE 13 17 7 9 1020.5 1020.1 0.0
29/12:00am 20.6 16.8 3.8 33 8.1 ESE 13 17 7 9 1020.6 1020.2 0.0
 
Date/Time
WST
Temp
°C
App
Temp
°C
Dew
Point
Rel
Hum
%
Delta-T
°C
Wind Press
QNH
hPa
Press
MSL
hPa
Rain
since 9 am
mm
Dir
 
Spd
km/h
Gust
km/h
Spd
kts
Gust
kts
28/11:30pm 20.8 17.3 3.5 32 8.3 ESE 11 15 6 8 1020.5 1020.1 0.0
28/11:00pm 21.2 17.7 3.4 31 8.5 ESE 11 15 6 8 1020.4 1020.0 0.0
28/10:30pm 22.4 18.3 4.5 31 8.8 ESE 15 17 8 9 1020.4 1020.0 0.0
28/10:00pm 23.0 19.4 5.0 31 9.0 ESE 13 19 7 10 1020.3 1019.9 0.0
28/09:30pm 23.0 19.4 5.0 31 9.0 ESE 13 19 7 10 1020.3 1019.9 0.0
28/09:00pm 23.2 19.5 4.7 30 9.2 ESE 13 15 7 8 1020.3 1019.9 0.0
28/08:30pm 23.7 20.1 5.1 30 9.4 ESE 13 15 7 8 1020.2 1019.8 0.0
28/08:00pm 24.0 20.4 4.9 29 9.6 ESE 13 15 7 8 1020.1 1019.7 0.0
28/07:30pm 24.2 20.5 4.6 28 9.8 SE 13 17 7 9 1019.8 1019.4 0.0
28/07:00pm 24.2 20.8 4.0 27 10.0 ESE 11 13 6 7 1019.5 1019.1 0.0
28/06:30pm 25.0 21.9 3.6 25 10.6 ESE 9 11 5 6 1019.2 1018.8 0.0
28/06:00pm 25.9 22.7 3.2 23 11.2 SE 9 11 5 6 1018.9 1018.5 0.0
28/05:30pm 28.1 25.0 3.7 21 12.3 E 9 11 5 6 1018.6 1018.2 0.0
28/05:00pm 30.1 27.0 5.4 21 13.0 E 11 15 6 8 1018.3 1017.9 0.0
28/04:30pm 31.2 27.7 5.6 20 13.6 E 13 24 7 13 1018.1 1017.7 0.0
28/04:00pm 31.7 27.0 6.0 20 13.8 E 20 28 11 15 1018.0 1017.6 0.0
28/03:30pm 32.2 27.8 6.4 20 14.0 E 19 28 10 15 1017.9 1017.5 0.0
28/03:00pm 32.3 28.0 7.2 21 13.8 ENE 19 28 10 15 1017.8 1017.4 0.0
28/02:30pm 32.1 27.6 7.0 21 13.7 ENE 20 32 11 17 1018.0 1017.6 0.0
28/02:00pm 31.9 26.6 6.9 21 13.6 ENE 24 33 13 18 1018.3 1017.9 0.0
28/01:30pm 32.0 27.6 7.6 22 13.5 E 20 28 11 15 1018.6 1018.2 0.0
28/01:00pm 32.1 28.3 7.7 22 13.5 ENE 17 26 9 14 1019.1 1018.7 0.0
28/12:30pm 31.2 26.8 7.6 23 13.0 NE 20 32 11 17 1019.6 1019.2 0.0
28/12:00pm 30.4 25.1 7.0 23 12.6 ENE 24 32 13 17 1020.2 1019.8 0.0
28/11:30am 29.9 24.7 7.2 24 12.3 E 24 35 13 19 1020.9 1020.5 0.0
28/11:00am 29.8 24.7 7.7 25 12.0 ENE 24 35 13 19 1021.4 1021.1 0.0
28/10:30am 28.7 23.5 7.3 26 11.5 ENE 24 35 13 19 1021.7 1021.4 0.0
28/10:00am 27.8 21.8 7.1 27 11.0 ENE 28 41 15 22 1021.9 1021.6 0.0
28/09:30am 27.0 20.6 6.9 28 10.7 ENE 30 41 16 22 1022.2 1021.9 0.0
28/09:00am 26.2 19.5 7.3 30 10.0 ENE 32 44 17 24 1022.4 1022.1 0.0
28/08:41am 25.9 19.6 7.5 31 9.8 ENE 30 48 16 26 1022.3 1022.0 0.0
28/08:30am 25.6 18.9 7.2 31 9.7 ENE 32 43 17 23 1022.2 1021.9 0.0
28/08:00am 24.5 18.5 7.2 33 9.1 ENE 28 43 15 23 1022.0 1021.7 0.0
28/07:30am 23.6 19.4 7.3 35 8.5 E 19 28 10 15 1022.0 1021.7 0.0
28/07:00am 22.5 18.5 6.7 36 8.1 E 17 24 9 13 1021.8 1021.5 0.0
28/06:30am 21.2 18.5 5.5 36 7.8 E 9 15 5 8 1021.5 1021.2 0.0
28/06:00am 21.1 18.4 5.5 36 7.8 E 9 13 5 7 1021.2 1020.9 0.0
28/05:30am 21.7 18.7 6.0 36 7.9 E 11 20 6 11 1020.8 1020.4 0.0
28/05:00am 22.1 18.8 6.3 36 8.0 E 13 20 7 11 1020.4 1020.0 0.0
28/04:30am 22.0 19.1 6.3 36 8.0 E 11 17 6 9 1020.1 1019.7 0.0
28/04:00am 22.0 19.4 6.3 36 8.0 E 9 15 5 8 1019.8 1019.4 0.0
28/03:30am 22.0 19.1 6.3 36 8.0 ESE 11 15 6 8 1019.7 1019.3 0.0
28/03:00am 22.5 19.6 6.7 36 8.1 ESE 11 15 6 8 1019.5 1019.1 0.0
28/02:30am 22.1 19.5 6.3 36 8.1 ESE 9 13 5 7 1019.6 1019.2 0.0
28/02:00am 22.6 19.7 6.4 35 8.3 ESE 11 13 6 7 1019.6 1019.2 0.0
28/01:30am 23.0 19.8 6.7 35 8.4 E 13 17 7 9 1019.4 1019.0 0.0
28/01:00am 23.1 19.4 6.4 34 8.6 ESE 15 20 8 11 1019.5 1019.1 0.0
28/12:30am 23.6 19.6 6.8 34 8.7 ESE 17 20 9 11 1019.5 1019.1 0.0
28/12:00am 23.8 20.2 6.6 33 8.9 ESE 15 20 8 11 1019.7 1019.3 0.0
 
Date/Time
WST
Temp
°C
App
Temp
°C
Dew
Point
Rel
Hum
%
Delta-T
°C
Wind Press
QNH
hPa
Press
MSL
hPa
Rain
since 9 am
mm
Dir
 
Spd
km/h
Gust
km/h
Spd
kts
Gust
kts
27/11:30pm 24.1 20.5 6.8 33 9.0 SE 15 19 8 10 1019.9 1019.5 0.0
27/11:00pm 24.4 21.1 6.6 32 9.2 SE 13 17 7 9 1020.0 1019.6 0.0
27/10:30pm 25.0 21.8 6.7 31 9.6 ESE 13 17 7 9 1019.9 1019.5 0.0
27/10:00pm 25.4 22.3 7.1 31 9.6 ESE 13 17 7 9 1020.0 1019.6 0.0
27/09:30pm 25.8 22.6 6.9 30 10.0 ESE 13 17 7 9 1019.9 1019.5 0.0
27/09:00pm 26.4 22.9 7.4 30 10.1 ESE 15 20 8 11 1019.7 1019.3 0.0
27/08:30pm 26.5 23.3 7.0 29 10.3 ESE 13 20 7 11 1019.6 1019.2 0.0
27/08:00pm 26.7 23.5 6.7 28 10.5 ESE 13 19 7 10 1019.5 1019.1 0.0
27/07:30pm 27.0 23.8 6.9 28 10.7 ESE 13 17 7 9 1019.1 1018.7 0.0
27/07:00pm 27.5 24.3 6.8 27 11.0 SE 13 17 7 9 1018.7 1018.3 0.0
27/06:30pm 27.7 24.4 6.5 26 11.2 SE 13 15 7 8 1018.3 1017.9 0.0
27/06:00pm 28.2 25.3 6.3 25 11.6 SE 11 13 6 7 1017.9 1017.5 0.0
27/05:30pm 29.7 26.8 6.4 23 12.5 ESE 11 13 6 7 1017.6 1017.2 0.0
27/05:00pm 31.5 28.2 7.9 23 13.0 ESE 15 20 8 11 1017.3 1016.9 0.0
27/04:30pm 32.5 28.8 8.0 22 13.6 ESE 17 26 9 14 1017.1 1016.7 0.0
27/04:00pm 33.0 29.1 8.5 22 13.8 ESE 19 22 10 12 1016.8 1016.4 0.0
27/03:30pm 33.3 28.8 8.7 22 13.9 ESE 22 32 12 17 1016.7 1016.3 0.0
27/03:00pm 33.9 30.1 9.2 22 14.1 E 19 28 10 15 1016.9 1016.5 0.0
27/02:30pm 33.7 30.1 9.7 23 13.8 ESE 19 30 10 16 1017.0 1016.6 0.0
27/02:00pm 33.1 29.3 9.2 23 13.6 E 19 30 10 16 1017.1 1016.7 0.0
27/01:30pm 33.0 29.4 9.7 24 13.4 E 19 30 10 16 1017.5 1017.1 0.0
27/01:00pm 32.8 29.1 10.2 25 13.0 ESE 20 32 11 17 1017.9 1017.5 0.0
27/12:30pm 32.2 28.7 10.8 27 12.4 ESE 20 33 11 18 1018.3 1017.9 0.0
27/12:00pm 31.2 27.6 10.5 28 11.9 ESE 20 33 11 18 1019.0 1018.6 0.0
27/11:30am 30.8 27.2 10.7 29 11.6 E 20 30 11 16 1019.6 1019.2 0.0
27/11:00am 29.6 25.1 10.2 30 11.0 ESE 24 35 13 19 1020.2 1019.8 0.0
27/10:30am 29.5 26.2 11.5 33 10.4 E 20 30 11 16 1020.6 1020.2 0.0
27/10:00am 28.2 24.7 10.9 34 9.9 E 20 30 11 16 1021.1 1020.8 0.0
27/09:30am 26.9 23.3 10.6 36 9.2 ESE 20 28 11 15 1021.7 1021.4 0.0
27/09:00am 25.8 21.4 10.4 38 8.6 ESE 24 35 13 19 1021.9 1021.6 0.0
27/08:30am 24.5 20.4 10.0 40 8.0 ESE 22 33 12 18 1021.9 1021.6 0.0
27/08:00am 22.8 17.7 9.2 42 7.3 ESE 26 35 14 19 1021.9 1021.6 0.0
27/07:30am 22.3 18.3 9.1 43 7.1 ESE 20 33 11 18 1021.6 1021.3 0.0
27/07:00am 21.6 18.5 8.8 44 6.8 SE 15 20 8 11 1021.4 1021.1 0.0
27/06:30am 19.2 17.1 6.7 44 6.3 SE 7 11 4 6 1021.1 1020.8 0.0
27/06:00am 19.9 17.1 7.0 43 6.6 SE 11 15 6 8 1020.7 1020.3 0.0
27/05:30am 20.7 17.2 7.3 42 6.9 SSE 15 19 8 10 1020.4 1020.0 0.0
27/05:00am 20.8 17.7 7.1 41 7.0 SE 13 20 7 11 1020.1 1019.7 0.0
27/04:30am 21.2 17.7 7.4 41 7.1 SE 15 19 8 10 1019.9 1019.5 0.0
27/04:00am 21.6 17.8 7.4 40 7.3 SE 17 22 9 12 1019.6 1019.2 0.0
27/03:30am 21.3 17.8 7.2 40 7.3 SSE 15 20 8 11 1019.6 1019.2 0.0
27/03:00am 21.4 17.8 6.9 39 7.4 SSE 15 19 8 10 1019.6 1019.2 0.0
27/02:30am 21.4 18.2 6.9 39 7.4 SSE 13 17 7 9 1019.8 1019.4 0.0
27/02:00am 21.8 18.6 6.9 38 7.6 SSE 13 19 7 10 1019.7 1019.3 0.0
27/01:30am 22.5 18.2 7.1 37 8.0 SSE 19 26 10 14 1019.7 1019.3 0.0
27/01:00am 23.1 18.7 7.6 37 8.1 SSE 20 30 11 16 1019.8 1019.4 0.0
27/12:30am 23.0 18.7 7.9 38 8.0 SSE 20 28 11 15 1019.9 1019.5 0.0
27/12:00am 22.2 17.9 6.8 37 7.9 S 19 24 10 13 1019.9 1019.5 0.0
 
Date/Time
WST
Temp
°C
App
Temp
°C
Dew
Point
Rel
Hum
%
Delta-T
°C
Wind Press
QNH
hPa
Press
MSL
hPa
Rain
since 9 am
mm
Dir
 
Spd
km/h
Gust
km/h
Spd
kts
Gust
kts
26/11:30pm 22.4 18.8 6.6 36 8.1 S 15 19 8 10 1019.9 1019.5 0.0
26/11:00pm 22.1 19.1 5.9 35 8.2 S 11 13 6 7 1019.4 1019.0 0.0
26/10:30pm 23.0 19.7 6.3 34 8.6 SSE 13 17 7 9 1019.5 1019.1 0.0
26/10:00pm 23.6 20.3 6.4 33 8.8 SSE 13 15 7 8 1019.6 1019.2 0.0
26/09:30pm 24.6 21.5 7.3 33 9.1 SSE 13 17 7 9 1019.6 1019.2 0.0
26/09:00pm 25.3 21.8 7.4 32 9.5 SSE 15 20 8 11 1019.5 1019.1 0.0
26/08:30pm 25.7 22.2 7.3 31 9.8 SSE 15 19 8 10 1019.5 1019.1 0.0
26/08:00pm 26.1 22.7 7.7 31 9.8 SSE 15 20 8 11 1019.4 1019.0 0.0
26/07:30pm 26.2 23.1 7.3 30 10.1 S 13 19 7 10 1019.3 1018.9 0.0
26/07:00pm 26.6 23.3 6.6 28 10.5 S 13 17 7 9 1018.9 1018.5 0.0
26/06:30pm 27.4 24.2 6.8 27 10.9 SSE 13 17 7 9 1018.5 1018.1 0.0
26/06:00pm 28.3 25.1 7.0 26 11.4 SSE 13 17 7 9 1018.1 1017.7 0.0
26/05:30pm 29.4 26.3 7.3 25 12.0 SSE 13 17 7 9 1017.6 1017.2 0.0
26/05:00pm 30.7 27.5 8.4 25 12.4 SSE 15 24 8 13 1017.2 1016.8 0.0
26/04:30pm 31.6 27.6 9.2 25 12.7 SSE 20 28 11 15 1016.9 1016.5 0.0
26/04:00pm 32.1 27.9 9.6 25 12.8 SSE 22 32 12 17 1016.6 1016.2 0.0
26/03:30pm 32.5 28.7 9.9 25 13.0 SSE 20 32 11 17 1016.5 1016.1 0.0
26/03:00pm 32.8 29.5 10.8 26 12.8 SSE 19 30 10 16 1016.5 1016.1 0.0
26/02:30pm 32.5 29.1 11.1 27 12.5 SSE 20 32 11 17 1016.6 1016.2 0.0
26/02:00pm 32.3 29.0 11.5 28 12.2 SE 20 30 11 16 1016.8 1016.4 0.0
26/01:30pm 32.1 28.9 11.8 29 12.0 SSE 20 35 11 19 1017.1 1016.7 0.0

Other Formats:

Comma delimited format used in spreadsheet applications
http://www.bom.gov.au/fwo/IDW60801/IDW60801.94206.axf

JavaScript Object Notation format (JSON) in row-major order
http://www.bom.gov.au/fwo/IDW60801/IDW60801.94206.json